Terminal Aerodrome Forecast
Issued by NWS Portland, ME

Home | Current Version | Previous Version | Text Only | Print | Product List | Glossary On
Versions: 1 2 3 4 5 6 7 8 9 10 11 12 13 14 15 16 17 18 19 20 21 22
008
FTUS41 KGYX 051123
TAFPWM
TAF
KPWM 051123Z 0512/0612 01009KT 3SM -DZ BR OVC007
     FM051400 03010KT P6SM OVC012
     FM051600 02012G20KT P6SM OVC025
     FM060000 01012KT 4SM -RA BR OVC012=

USA.gov is the U.S. government's official web portal to all federal, state and local government web resources and services.